sensor_id;sensor_type;location;lat;lon;timestamp;temperature;humidity
21906;DHT22;11117;48.644;9.006;2022-10-22T00:02:02;13.70;99.90
21906;DHT22;11117;48.644;9.006;2022-10-22T00:04:28;13.70;99.90
21906;DHT22;11117;48.644;9.006;2022-10-22T00:06:54;13.60;99.90
21906;DHT22;11117;48.644;9.006;2022-10-22T00:09:19;13.60;99.90
21906;DHT22;11117;48.644;9.006;2022-10-22T00:11:45;13.50;99.90
21906;DHT22;11117;48.644;9.006;2022-10-22T00:14:11;13.60;99.90
21906;DHT22;11117;48.644;9.006;2022-10-22T00:16:36;13.50;99.90
21906;DHT22;11117;48.644;9.006;2022-10-22T00:19:02;13.50;99.90
21906;DHT22;11117;48.644;9.006;2022-10-22T00:21:28;13.50;99.90
21906;DHT22;11117;48.644;9.006;2022-10-22T00:23:54;13.50;99.90
21906;DHT22;11117;48.644;9.006;2022-10-22T00:26:20;13.50;99.90
21906;DHT22;11117;48.644;9.006;2022-10-22T00:28:46;13.50;99.90
21906;DHT22;11117;48.644;9.006;2022-10-22T00:31:11;13.50;99.90
21906;DHT22;11117;48.644;9.006;2022-10-22T00:33:37;13.50;99.90
21906;DHT22;11117;48.644;9.006;2022-10-22T00:36:03;13.50;99.90
21906;DHT22;11117;48.644;9.006;2022-10-22T00:38:29;13.50;99.90
21906;DHT22;11117;48.644;9.006;2022-10-22T00:40:54;13.50;99.90
21906;DHT22;11117;48.644;9.006;2022-10-22T00:43:20;13.60;99.90
21906;DHT22;11117;48.644;9.006;2022-10-22T00:45:47;13.50;99.90
21906;DHT22;11117;48.644;9.006;2022-10-22T00:48:24;13.40;99.90
21906;DHT22;11117;48.644;9.006;2022-10-22T00:50:58;13.30;99.90
21906;DHT22;11117;48.644;9.006;2022-10-22T00:53:43;13.20;99.90
21906;DHT22;11117;48.644;9.006;2022-10-22T00:56:10;13.10;99.90
21906;DHT22;11117;48.644;9.006;2022-10-22T00:58:38;13.00;99.90
21906;DHT22;11117;48.644;9.006;2022-10-22T01:01:08;13.00;99.90
21906;DHT22;11117;48.644;9.006;2022-10-22T01:03:36;13.00;99.90
21906;DHT22;11117;48.644;9.006;2022-10-22T01:06:03;12.90;99.90
21906;DHT22;11117;48.644;9.006;2022-10-22T01:08:42;12.80;99.90
21906;DHT22;11117;48.644;9.006;2022-10-22T01:21:48;13.20;99.90
21906;DHT22;11117;48.644;9.006;2022-10-22T01:27:14;12.90;99.90
21906;DHT22;11117;48.644;9.006;2022-10-22T01:29:50;12.90;99.90
21906;DHT22;11117;48.644;9.006;2022-10-22T01:32:21;12.90;99.90
21906;DHT22;11117;48.644;9.006;2022-10-22T01:34:59;13.00;99.90
21906;DHT22;11117;48.644;9.006;2022-10-22T01:37:29;13.00;99.90
21906;DHT22;11117;48.644;9.006;2022-10-22T01:39:58;13.10;99.90
21906;DHT22;11117;48.644;9.006;2022-10-22T01:42:25;13.10;99.90
21906;DHT22;11117;48.644;9.006;2022-10-22T01:44:51;13.00;99.90
21906;DHT22;11117;48.644;9.006;2022-10-22T01:50:32;13.00;99.90
21906;DHT22;11117;48.644;9.006;2022-10-22T01:53:12;13.10;99.90
21906;DHT22;11117;48.644;9.006;2022-10-22T01:56:00;13.00;99.90
21906;DHT22;11117;48.644;9.006;2022-10-22T01:58:51;13.00;99.90
21906;DHT22;11117;48.644;9.006;2022-10-22T02:01:34;12.90;99.90
21906;DHT22;11117;48.644;9.006;2022-10-22T02:04:21;12.90;99.90
21906;DHT22;11117;48.644;9.006;2022-10-22T02:06:50;12.80;99.90
21906;DHT22;11117;48.644;9.006;2022-10-22T02:09:19;12.70;99.90
21906;DHT22;11117;48.644;9.006;2022-10-22T02:11:46;12.60;99.90
21906;DHT22;11117;48.644;9.006;2022-10-22T02:14:15;12.50;99.90
21906;DHT22;11117;48.644;9.006;2022-10-22T02:16:44;12.50;99.90
21906;DHT22;11117;48.644;9.006;2022-10-22T02:19:25;12.60;99.90
21906;DHT22;11117;48.644;9.006;2022-10-22T02:21:51;12.60;99.90
21906;DHT22;11117;48.644;9.006;2022-10-22T02:24:18;12.70;99.90
21906;DHT22;11117;48.644;9.006;2022-10-22T02:29:42;12.90;99.90
21906;DHT22;11117;48.644;9.006;2022-10-22T02:32:10;13.00;99.90
21906;DHT22;11117;48.644;9.006;2022-10-22T02:34:39;13.00;99.90
21906;DHT22;11117;48.644;9.006;2022-10-22T02:37:06;12.90;99.90
21906;DHT22;11117;48.644;9.006;2022-10-22T02:39:32;12.90;99.90
21906;DHT22;11117;48.644;9.006;2022-10-22T02:42:00;12.90;99.90
21906;DHT22;11117;48.644;9.006;2022-10-22T02:44:26;12.90;99.90
21906;DHT22;11117;48.644;9.006;2022-10-22T02:46:51;13.00;99.90
21906;DHT22;11117;48.644;9.006;2022-10-22T02:49:17;13.00;99.90
21906;DHT22;11117;48.644;9.006;2022-10-22T02:51:42;13.00;99.90
21906;DHT22;11117;48.644;9.006;2022-10-22T02:54:08;13.00;99.90
21906;DHT22;11117;48.644;9.006;2022-10-22T02:56:34;12.90;99.90
21906;DHT22;11117;48.644;9.006;2022-10-22T02:58:59;12.90;99.90
21906;DHT22;11117;48.644;9.006;2022-10-22T03:01:25;12.90;99.90
21906;DHT22;11117;48.644;9.006;2022-10-22T03:03:50;12.90;99.90
21906;DHT22;11117;48.644;9.006;2022-10-22T03:06:16;12.90;99.90
21906;DHT22;11117;48.644;9.006;2022-10-22T03:08:42;13.00;99.90
21906;DHT22;11117;48.644;9.006;2022-10-22T03:11:08;13.00;99.90
21906;DHT22;11117;48.644;9.006;2022-10-22T03:13:33;13.00;99.90
21906;DHT22;11117;48.644;9.006;2022-10-22T03:15:59;13.00;99.90
21906;DHT22;11117;48.644;9.006;2022-10-22T03:18:25;13.00;99.90
21906;DHT22;11117;48.644;9.006;2022-10-22T03:23:47;13.00;99.90
21906;DHT22;11117;48.644;9.006;2022-10-22T03:26:13;13.00;99.90
21906;DHT22;11117;48.644;9.006;2022-10-22T03:28:40;13.10;99.90
21906;DHT22;11117;48.644;9.006;2022-10-22T03:31:06;13.10;99.90
21906;DHT22;11117;48.644;9.006;2022-10-22T03:33:33;13.10;99.90
21906;DHT22;11117;48.644;9.006;2022-10-22T03:35:59;13.10;99.90
21906;DHT22;11117;48.644;9.006;2022-10-22T03:38:25;13.10;99.90
21906;DHT22;11117;48.644;9.006;2022-10-22T03:40:51;13.00;99.90
21906;DHT22;11117;48.644;9.006;2022-10-22T03:43:17;13.00;99.90
21906;DHT22;11117;48.644;9.006;2022-10-22T03:45:42;12.90;99.90
21906;DHT22;11117;48.644;9.006;2022-10-22T03:48:08;12.90;99.90
21906;DHT22;11117;48.644;9.006;2022-10-22T03:50:34;12.80;99.90
21906;DHT22;11117;48.644;9.006;2022-10-22T03:52:59;12.70;99.90
21906;DHT22;11117;48.644;9.006;2022-10-22T03:55:26;12.60;99.90
21906;DHT22;11117;48.644;9.006;2022-10-22T03:57:52;12.60;99.90
21906;DHT22;11117;48.644;9.006;2022-10-22T04:00:17;12.60;99.90
21906;DHT22;11117;48.644;9.006;2022-10-22T04:02:43;12.60;99.90
21906;DHT22;11117;48.644;9.006;2022-10-22T04:05:09;12.60;99.90
21906;DHT22;11117;48.644;9.006;2022-10-22T04:07:34;12.70;99.90
21906;DHT22;11117;48.644;9.006;2022-10-22T04:10:02;12.60;99.90
21906;DHT22;11117;48.644;9.006;2022-10-22T04:12:27;12.60;99.90
21906;DHT22;11117;48.644;9.006;2022-10-22T04:14:53;12.60;99.90
21906;DHT22;11117;48.644;9.006;2022-10-22T04:17:18;12.50;99.90
21906;DHT22;11117;48.644;9.006;2022-10-22T04:19:44;12.40;99.90
21906;DHT22;11117;48.644;9.006;2022-10-22T04:22:13;12.30;99.90
21906;DHT22;11117;48.644;9.006;2022-10-22T04:24:38;12.20;99.90
21906;DHT22;11117;48.644;9.006;2022-10-22T04:27:04;12.10;99.90
21906;DHT22;11117;48.644;9.006;2022-10-22T04:29:29;12.10;99.90
21906;DHT22;11117;48.644;9.006;2022-10-22T04:31:55;12.00;99.90
21906;DHT22;11117;48.644;9.006;2022-10-22T04:34:20;12.00;99.90
21906;DHT22;11117;48.644;9.006;2022-10-22T04:36:46;12.10;99.90
21906;DHT22;11117;48.644;9.006;2022-10-22T04:39:12;12.10;99.90
21906;DHT22;11117;48.644;9.006;2022-10-22T04:41:38;12.00;99.90
21906;DHT22;11117;48.644;9.006;2022-10-22T04:44:04;11.90;99.90
21906;DHT22;11117;48.644;9.006;2022-10-22T04:46:32;11.90;99.90
21906;DHT22;11117;48.644;9.006;2022-10-22T04:48:57;11.90;99.90
21906;DHT22;11117;48.644;9.006;2022-10-22T04:51:26;11.90;99.90
21906;DHT22;11117;48.644;9.006;2022-10-22T04:53:52;12.00;99.90
21906;DHT22;11117;48.644;9.006;2022-10-22T04:56:22;12.00;99.90
21906;DHT22;11117;48.644;9.006;2022-10-22T04:58:58;11.90;99.90
21906;DHT22;11117;48.644;9.006;2022-10-22T05:01:27;11.90;99.90
21906;DHT22;11117;48.644;9.006;2022-10-22T05:03:56;11.90;99.90
21906;DHT22;11117;48.644;9.006;2022-10-22T05:06:23;11.80;99.90
21906;DHT22;11117;48.644;9.006;2022-10-22T05:08:54;11.70;99.90
21906;DHT22;11117;48.644;9.006;2022-10-22T05:11:23;11.70;99.90
21906;DHT22;11117;48.644;9.006;2022-10-22T05:13:49;11.60;99.90
21906;DHT22;11117;48.644;9.006;2022-10-22T05:16:14;11.70;99.90
21906;DHT22;11117;48.644;9.006;2022-10-22T05:18:42;11.70;99.90
21906;DHT22;11117;48.644;9.006;2022-10-22T05:21:10;11.70;99.90
21906;DHT22;11117;48.644;9.006;2022-10-22T05:23:36;11.80;99.90
21906;DHT22;11117;48.644;9.006;2022-10-22T05:26:03;11.80;99.90
21906;DHT22;11117;48.644;9.006;2022-10-22T05:28:29;11.70;99.90
21906;DHT22;11117;48.644;9.006;2022-10-22T05:30:56;11.60;99.90
21906;DHT22;11117;48.644;9.006;2022-10-22T05:33:22;11.60;99.90
21906;DHT22;11117;48.644;9.006;2022-10-22T05:35:51;11.60;99.90
21906;DHT22;11117;48.644;9.006;2022-10-22T05:38:17;11.60;99.90
21906;DHT22;11117;48.644;9.006;2022-10-22T05:40:43;11.70;99.90
21906;DHT22;11117;48.644;9.006;2022-10-22T05:43:09;11.70;99.90
21906;DHT22;11117;48.644;9.006;2022-10-22T05:45:41;11.80;99.90
21906;DHT22;11117;48.644;9.006;2022-10-22T05:48:08;11.70;99.90
21906;DHT22;11117;48.644;9.006;2022-10-22T05:50:37;11.80;99.90
21906;DHT22;11117;48.644;9.006;2022-10-22T05:53:06;11.80;99.90
21906;DHT22;11117;48.644;9.006;2022-10-22T05:55:36;11.80;99.90
21906;DHT22;11117;48.644;9.006;2022-10-22T05:58:03;11.80;99.90
21906;DHT22;11117;48.644;9.006;2022-10-22T06:00:29;11.80;99.90
21906;DHT22;11117;48.644;9.006;2022-10-22T06:02:55;11.90;99.90
21906;DHT22;11117;48.644;9.006;2022-10-22T06:05:20;11.90;99.90
21906;DHT22;11117;48.644;9.006;2022-10-22T06:07:46;11.90;99.90
21906;DHT22;11117;48.644;9.006;2022-10-22T06:10:18;11.90;99.90
21906;DHT22;11117;48.644;9.006;2022-10-22T06:12:46;11.90;99.90
21906;DHT22;11117;48.644;9.006;2022-10-22T06:15:13;11.90;99.90
21906;DHT22;11117;48.644;9.006;2022-10-22T06:17:39;11.90;99.90
21906;DHT22;11117;48.644;9.006;2022-10-22T06:20:08;11.90;99.90
21906;DHT22;11117;48.644;9.006;2022-10-22T06:22:37;12.00;99.90
21906;DHT22;11117;48.644;9.006;2022-10-22T06:25:04;12.10;99.90
21906;DHT22;11117;48.644;9.006;2022-10-22T06:27:30;12.10;99.90
21906;DHT22;11117;48.644;9.006;2022-10-22T06:29:58;12.10;99.90
21906;DHT22;11117;48.644;9.006;2022-10-22T06:32:24;12.20;99.90
21906;DHT22;11117;48.644;9.006;2022-10-22T06:34:49;12.30;99.90
21906;DHT22;11117;48.644;9.006;2022-10-22T06:37:15;12.40;99.90
21906;DHT22;11117;48.644;9.006;2022-10-22T06:39:44;12.50;99.90
21906;DHT22;11117;48.644;9.006;2022-10-22T06:42:12;12.70;99.90
21906;DHT22;11117;48.644;9.006;2022-10-22T06:44:37;12.70;99.90
21906;DHT22;11117;48.644;9.006;2022-10-22T06:47:03;12.80;99.90
21906;DHT22;11117;48.644;9.006;2022-10-22T06:49:29;12.80;99.90
21906;DHT22;11117;48.644;9.006;2022-10-22T06:51:55;13.00;99.90
21906;DHT22;11117;48.644;9.006;2022-10-22T06:54:21;12.90;99.90
21906;DHT22;11117;48.644;9.006;2022-10-22T06:56:47;12.90;99.90
21906;DHT22;11117;48.644;9.006;2022-10-22T06:59:13;13.00;99.90
21906;DHT22;11117;48.644;9.006;2022-10-22T07:01:38;13.10;99.90
21906;DHT22;11117;48.644;9.006;2022-10-22T07:04:05;13.00;99.90
21906;DHT22;11117;48.644;9.006;2022-10-22T07:06:31;13.10;99.90
21906;DHT22;11117;48.644;9.006;2022-10-22T07:08:58;13.20;99.90
21906;DHT22;11117;48.644;9.006;2022-10-22T07:11:32;13.20;99.90
21906;DHT22;11117;48.644;9.006;2022-10-22T07:14:04;13.30;99.90
21906;DHT22;11117;48.644;9.006;2022-10-22T07:16:30;13.30;99.90
21906;DHT22;11117;48.644;9.006;2022-10-22T07:18:55;13.40;99.90
21906;DHT22;11117;48.644;9.006;2022-10-22T07:21:21;13.50;99.90
21906;DHT22;11117;48.644;9.006;2022-10-22T07:23:47;13.50;99.90
21906;DHT22;11117;48.644;9.006;2022-10-22T07:26:14;13.60;99.90
21906;DHT22;11117;48.644;9.006;2022-10-22T07:28:43;13.70;99.90
21906;DHT22;11117;48.644;9.006;2022-10-22T07:31:11;13.80;99.90
21906;DHT22;11117;48.644;9.006;2022-10-22T07:33:37;13.90;99.90
21906;DHT22;11117;48.644;9.006;2022-10-22T07:36:05;13.90;99.90
21906;DHT22;11117;48.644;9.006;2022-10-22T07:38:31;13.90;99.90
21906;DHT22;11117;48.644;9.006;2022-10-22T07:40:57;14.00;99.90
21906;DHT22;11117;48.644;9.006;2022-10-22T07:43:24;14.00;99.90
21906;DHT22;11117;48.644;9.006;2022-10-22T07:45:49;14.10;99.90
21906;DHT22;11117;48.644;9.006;2022-10-22T07:48:15;14.10;99.90
21906;DHT22;11117;48.644;9.006;2022-10-22T07:50:41;14.20;99.90
21906;DHT22;11117;48.644;9.006;2022-10-22T07:53:06;14.30;99.90
21906;DHT22;11117;48.644;9.006;2022-10-22T07:55:33;14.40;99.90
21906;DHT22;11117;48.644;9.006;2022-10-22T07:57:59;14.50;99.90
21906;DHT22;11117;48.644;9.006;2022-10-22T08:00:24;14.50;99.90
21906;DHT22;11117;48.644;9.006;2022-10-22T08:02:50;14.60;99.90
21906;DHT22;11117;48.644;9.006;2022-10-22T08:05:15;14.60;99.90
21906;DHT22;11117;48.644;9.006;2022-10-22T08:07:41;14.70;99.90
21906;DHT22;11117;48.644;9.006;2022-10-22T08:10:08;14.70;99.90
21906;DHT22;11117;48.644;9.006;2022-10-22T08:12:34;14.80;99.90
21906;DHT22;11117;48.644;9.006;2022-10-22T08:15:07;14.90;99.90
21906;DHT22;11117;48.644;9.006;2022-10-22T08:17:36;15.00;99.90
21906;DHT22;11117;48.644;9.006;2022-10-22T08:20:02;15.10;99.90
21906;DHT22;11117;48.644;9.006;2022-10-22T08:22:27;15.10;99.90
21906;DHT22;11117;48.644;9.006;2022-10-22T08:24:53;15.30;99.90
21906;DHT22;11117;48.644;9.006;2022-10-22T08:27:19;15.30;99.90
21906;DHT22;11117;48.644;9.006;2022-10-22T08:29:44;15.40;99.90
21906;DHT22;11117;48.644;9.006;2022-10-22T08:32:10;15.40;99.90
21906;DHT22;11117;48.644;9.006;2022-10-22T08:34:35;15.40;99.90
21906;DHT22;11117;48.644;9.006;2022-10-22T08:37:01;15.40;99.90
21906;DHT22;11117;48.644;9.006;2022-10-22T08:39:26;15.60;99.90
21906;DHT22;11117;48.644;9.006;2022-10-22T08:47:45;16.00;99.90
21906;DHT22;11117;48.644;9.006;2022-10-22T08:50:18;16.10;99.90
21906;DHT22;11117;48.644;9.006;2022-10-22T08:52:50;16.30;99.90
21906;DHT22;11117;48.644;9.006;2022-10-22T08:55:17;16.40;99.90
21906;DHT22;11117;48.644;9.006;2022-10-22T09:00:15;16.60;99.90
21906;DHT22;11117;48.644;9.006;2022-10-22T09:06:28;16.60;99.90
21906;DHT22;11117;48.644;9.006;2022-10-22T09:08:56;16.80;99.90
21906;DHT22;11117;48.644;9.006;2022-10-22T09:11:32;17.00;99.90
21906;DHT22;11117;48.644;9.006;2022-10-22T09:13:59;17.20;99.90
21906;DHT22;11117;48.644;9.006;2022-10-22T09:16:29;17.10;99.90
21906;DHT22;11117;48.644;9.006;2022-10-22T09:21:48;17.30;99.90
21906;DHT22;11117;48.644;9.006;2022-10-22T09:24:36;17.50;99.90
21906;DHT22;11117;48.644;9.006;2022-10-22T09:27:11;17.80;99.90
21906;DHT22;11117;48.644;9.006;2022-10-22T09:29:37;17.80;99.90
21906;DHT22;11117;48.644;9.006;2022-10-22T09:32:03;17.90;99.90
21906;DHT22;11117;48.644;9.006;2022-10-22T09:34:29;17.80;99.90
21906;DHT22;11117;48.644;9.006;2022-10-22T09:37:08;17.90;99.90
21906;DHT22;11117;48.644;9.006;2022-10-22T09:39:44;17.70;99.90
21906;DHT22;11117;48.644;9.006;2022-10-22T09:42:14;17.80;99.90
21906;DHT22;11117;48.644;9.006;2022-10-22T09:44:40;17.80;99.90
21906;DHT22;11117;48.644;9.006;2022-10-22T09:47:16;17.90;99.90
21906;DHT22;11117;48.644;9.006;2022-10-22T09:50:17;17.90;99.90
21906;DHT22;11117;48.644;9.006;2022-10-22T09:52:43;18.10;99.90
21906;DHT22;11117;48.644;9.006;2022-10-22T09:55:16;18.30;99.90
21906;DHT22;11117;48.644;9.006;2022-10-22T09:57:42;18.40;99.90
21906;DHT22;11117;48.644;9.006;2022-10-22T10:00:09;18.40;99.90
21906;DHT22;11117;48.644;9.006;2022-10-22T10:02:39;18.50;99.90
21906;DHT22;11117;48.644;9.006;2022-10-22T10:05:06;18.60;99.90
21906;DHT22;11117;48.644;9.006;2022-10-22T10:07:33;18.70;99.90
21906;DHT22;11117;48.644;9.006;2022-10-22T10:10:00;18.80;99.90
21906;DHT22;11117;48.644;9.006;2022-10-22T10:12:43;18.80;99.90
21906;DHT22;11117;48.644;9.006;2022-10-22T10:20:33;19.00;99.90
21906;DHT22;11117;48.644;9.006;2022-10-22T10:26:26;18.50;99.90
21906;DHT22;11117;48.644;9.006;2022-10-22T10:29:09;18.50;99.90
21906;DHT22;11117;48.644;9.006;2022-10-22T10:32:14;18.40;99.90
21906;DHT22;11117;48.644;9.006;2022-10-22T10:37:25;18.40;99.90
21906;DHT22;11117;48.644;9.006;2022-10-22T10:40:14;18.30;99.90
21906;DHT22;11117;48.644;9.006;2022-10-22T10:43:16;18.50;99.90
21906;DHT22;11117;48.644;9.006;2022-10-22T10:46:08;18.60;99.90
21906;DHT22;11117;48.644;9.006;2022-10-22T10:51:52;18.40;99.90
21906;DHT22;11117;48.644;9.006;2022-10-22T10:56:59;18.50;99.90
21906;DHT22;11117;48.644;9.006;2022-10-22T11:08:00;19.00;99.90
21906;DHT22;11117;48.644;9.006;2022-10-22T11:10:51;19.00;99.90
21906;DHT22;11117;48.644;9.006;2022-10-22T11:13:35;19.10;99.90
21906;DHT22;11117;48.644;9.006;2022-10-22T11:16:31;19.10;99.90
21906;DHT22;11117;48.644;9.006;2022-10-22T11:19:04;19.10;99.90
21906;DHT22;11117;48.644;9.006;2022-10-22T11:24:48;19.00;99.90
21906;DHT22;11117;48.644;9.006;2022-10-22T11:27:36;19.00;99.90
21906;DHT22;11117;48.644;9.006;2022-10-22T11:30:18;19.30;99.90
21906;DHT22;11117;48.644;9.006;2022-10-22T11:32:48;19.30;99.90
21906;DHT22;11117;48.644;9.006;2022-10-22T11:35:19;19.40;99.90
21906;DHT22;11117;48.644;9.006;2022-10-22T11:37:45;19.40;99.90
21906;DHT22;11117;48.644;9.006;2022-10-22T11:40:30;19.40;99.90
21906;DHT22;11117;48.644;9.006;2022-10-22T11:42:58;19.40;99.90
21906;DHT22;11117;48.644;9.006;2022-10-22T11:45:39;19.40;99.90
21906;DHT22;11117;48.644;9.006;2022-10-22T11:48:17;19.30;99.90
21906;DHT22;11117;48.644;9.006;2022-10-22T11:50:54;19.30;99.90
21906;DHT22;11117;48.644;9.006;2022-10-22T11:53:35;19.20;99.90
21906;DHT22;11117;48.644;9.006;2022-10-22T11:56:22;19.10;99.90
21906;DHT22;11117;48.644;9.006;2022-10-22T11:58:48;19.40;99.90
21906;DHT22;11117;48.644;9.006;2022-10-22T12:01:22;19.50;99.90
21906;DHT22;11117;48.644;9.006;2022-10-22T12:04:13;19.40;99.90
21906;DHT22;11117;48.644;9.006;2022-10-22T12:09:18;19.40;99.90
21906;DHT22;11117;48.644;9.006;2022-10-22T12:11:48;19.30;99.90
21906;DHT22;11117;48.644;9.006;2022-10-22T12:19:46;20.10;99.90
21906;DHT22;11117;48.644;9.006;2022-10-22T12:24:51;20.70;99.90
21906;DHT22;11117;48.644;9.006;2022-10-22T12:27:27;20.80;99.90
21906;DHT22;11117;48.644;9.006;2022-10-22T12:29:58;20.80;99.90
21906;DHT22;11117;48.644;9.006;2022-10-22T12:32:35;20.40;99.90
21906;DHT22;11117;48.644;9.006;2022-10-22T12:35:07;20.40;99.90
21906;DHT22;11117;48.644;9.006;2022-10-22T12:37:34;20.50;99.90
21906;DHT22;11117;48.644;9.006;2022-10-22T12:40:00;20.80;99.90
21906;DHT22;11117;48.644;9.006;2022-10-22T12:42:26;21.00;99.90
21906;DHT22;11117;48.644;9.006;2022-10-22T12:44:55;21.20;99.90
21906;DHT22;11117;48.644;9.006;2022-10-22T12:47:21;21.30;99.90
21906;DHT22;11117;48.644;9.006;2022-10-22T12:49:49;21.30;99.90
21906;DHT22;11117;48.644;9.006;2022-10-22T12:52:18;21.40;99.90
21906;DHT22;11117;48.644;9.006;2022-10-22T12:54:49;21.50;99.90
21906;DHT22;11117;48.644;9.006;2022-10-22T12:57:17;21.50;99.90
21906;DHT22;11117;48.644;9.006;2022-10-22T12:59:46;21.50;99.90
21906;DHT22;11117;48.644;9.006;2022-10-22T13:02:22;21.50;99.90
21906;DHT22;11117;48.644;9.006;2022-10-22T13:07:50;21.40;99.90
21906;DHT22;11117;48.644;9.006;2022-10-22T13:10:31;21.30;99.90
21906;DHT22;11117;48.644;9.006;2022-10-22T13:13:00;21.40;99.90
21906;DHT22;11117;48.644;9.006;2022-10-22T13:18:17;21.40;99.90
21906;DHT22;11117;48.644;9.006;2022-10-22T13:20:57;21.40;99.90
21906;DHT22;11117;48.644;9.006;2022-10-22T13:23:25;21.30;99.90
21906;DHT22;11117;48.644;9.006;2022-10-22T13:26:16;21.20;99.90
21906;DHT22;11117;48.644;9.006;2022-10-22T13:28:48;21.20;99.90
21906;DHT22;11117;48.644;9.006;2022-10-22T13:31:18;21.10;99.90
21906;DHT22;11117;48.644;9.006;2022-10-22T13:33:45;21.00;99.90
21906;DHT22;11117;48.644;9.006;2022-10-22T13:36:14;20.90;99.90
21906;DHT22;11117;48.644;9.006;2022-10-22T13:38:41;20.90;99.90
21906;DHT22;11117;48.644;9.006;2022-10-22T13:41:23;20.70;99.90
21906;DHT22;11117;48.644;9.006;2022-10-22T13:43:49;20.50;99.90
21906;DHT22;11117;48.644;9.006;2022-10-22T13:46:15;20.50;99.90
21906;DHT22;11117;48.644;9.006;2022-10-22T13:48:41;20.60;99.90
21906;DHT22;11117;48.644;9.006;2022-10-22T13:51:17;20.40;99.80
21906;DHT22;11117;48.644;9.006;2022-10-22T13:53:47;20.50;99.90
21906;DHT22;11117;48.644;9.006;2022-10-22T13:56:17;20.60;99.90
21906;DHT22;11117;48.644;9.006;2022-10-22T13:58:45;20.60;99.90
21906;DHT22;11117;48.644;9.006;2022-10-22T14:01:21;20.50;99.90
21906;DHT22;11117;48.644;9.006;2022-10-22T14:03:48;20.50;99.90
21906;DHT22;11117;48.644;9.006;2022-10-22T14:06:16;20.50;99.90
21906;DHT22;11117;48.644;9.006;2022-10-22T14:08:47;20.50;99.90
21906;DHT22;11117;48.644;9.006;2022-10-22T14:11:13;20.10;99.70
21906;DHT22;11117;48.644;9.006;2022-10-22T14:13:39;20.10;99.90
21906;DHT22;11117;48.644;9.006;2022-10-22T14:16:23;19.90;99.90
21906;DHT22;11117;48.644;9.006;2022-10-22T14:19:05;19.90;99.90
21906;DHT22;11117;48.644;9.006;2022-10-22T14:21:38;20.00;99.90
21906;DHT22;11117;48.644;9.006;2022-10-22T14:24:04;19.80;99.90
21906;DHT22;11117;48.644;9.006;2022-10-22T14:26:31;19.90;99.90
21906;DHT22;11117;48.644;9.006;2022-10-22T14:28:58;19.90;99.90
21906;DHT22;11117;48.644;9.006;2022-10-22T14:31:23;19.90;99.90
21906;DHT22;11117;48.644;9.006;2022-10-22T14:33:49;20.00;99.90
21906;DHT22;11117;48.644;9.006;2022-10-22T14:36:16;19.90;99.90
21906;DHT22;11117;48.644;9.006;2022-10-22T14:38:44;19.90;99.90
21906;DHT22;11117;48.644;9.006;2022-10-22T14:41:21;19.90;99.90
21906;DHT22;11117;48.644;9.006;2022-10-22T14:43:46;19.90;99.90
21906;DHT22;11117;48.644;9.006;2022-10-22T14:46:14;19.80;99.90
21906;DHT22;11117;48.644;9.006;2022-10-22T14:48:40;19.70;99.90
21906;DHT22;11117;48.644;9.006;2022-10-22T14:51:06;19.70;99.90
21906;DHT22;11117;48.644;9.006;2022-10-22T14:53:32;19.70;99.90
21906;DHT22;11117;48.644;9.006;2022-10-22T14:55:57;19.60;99.90
21906;DHT22;11117;48.644;9.006;2022-10-22T14:58:23;19.60;99.90
21906;DHT22;11117;48.644;9.006;2022-10-22T15:00:48;19.60;99.90
21906;DHT22;11117;48.644;9.006;2022-10-22T15:03:14;19.60;99.90
21906;DHT22;11117;48.644;9.006;2022-10-22T15:05:43;19.60;99.90
21906;DHT22;11117;48.644;9.006;2022-10-22T15:08:17;19.50;99.90
21906;DHT22;11117;48.644;9.006;2022-10-22T15:10:59;19.40;99.90
21906;DHT22;11117;48.644;9.006;2022-10-22T15:13:25;19.40;99.90
21906;DHT22;11117;48.644;9.006;2022-10-22T15:15:51;19.30;99.90
21906;DHT22;11117;48.644;9.006;2022-10-22T15:18:17;19.30;99.90
21906;DHT22;11117;48.644;9.006;2022-10-22T15:20:42;19.30;99.90
21906;DHT22;11117;48.644;9.006;2022-10-22T15:23:08;19.20;99.90
21906;DHT22;11117;48.644;9.006;2022-10-22T15:25:33;19.10;99.90
21906;DHT22;11117;48.644;9.006;2022-10-22T15:27:59;19.10;99.90
21906;DHT22;11117;48.644;9.006;2022-10-22T15:30:24;18.90;99.90
21906;DHT22;11117;48.644;9.006;2022-10-22T15:32:50;18.90;99.90
21906;DHT22;11117;48.644;9.006;2022-10-22T15:35:15;18.80;99.90
21906;DHT22;11117;48.644;9.006;2022-10-22T15:37:41;18.80;99.90
21906;DHT22;11117;48.644;9.006;2022-10-22T15:40:07;18.70;99.90
21906;DHT22;11117;48.644;9.006;2022-10-22T15:42:33;18.60;99.90
21906;DHT22;11117;48.644;9.006;2022-10-22T15:44:59;18.50;99.90
21906;DHT22;11117;48.644;9.006;2022-10-22T15:47:25;18.40;99.90
21906;DHT22;11117;48.644;9.006;2022-10-22T15:49:51;18.30;99.90
21906;DHT22;11117;48.644;9.006;2022-10-22T15:52:16;18.20;99.90
21906;DHT22;11117;48.644;9.006;2022-10-22T15:54:42;18.10;99.90
21906;DHT22;11117;48.644;9.006;2022-10-22T15:57:07;18.00;99.90
21906;DHT22;11117;48.644;9.006;2022-10-22T15:59:34;18.00;99.90
21906;DHT22;11117;48.644;9.006;2022-10-22T16:01:59;17.90;99.90
21906;DHT22;11117;48.644;9.006;2022-10-22T16:04:25;17.70;99.90
21906;DHT22;11117;48.644;9.006;2022-10-22T16:06:52;17.60;99.90
21906;DHT22;11117;48.644;9.006;2022-10-22T16:09:20;17.50;99.90
21906;DHT22;11117;48.644;9.006;2022-10-22T16:11:46;17.40;99.90
21906;DHT22;11117;48.644;9.006;2022-10-22T16:14:16;17.30;99.90
21906;DHT22;11117;48.644;9.006;2022-10-22T16:16:44;17.20;99.90
21906;DHT22;11117;48.644;9.006;2022-10-22T16:19:11;17.10;99.90
21906;DHT22;11117;48.644;9.006;2022-10-22T16:21:40;17.00;99.90
21906;DHT22;11117;48.644;9.006;2022-10-22T16:24:07;16.90;99.90
21906;DHT22;11117;48.644;9.006;2022-10-22T16:26:33;16.80;99.90
21906;DHT22;11117;48.644;9.006;2022-10-22T16:28:59;16.70;99.90
21906;DHT22;11117;48.644;9.006;2022-10-22T16:31:24;16.60;99.90
21906;DHT22;11117;48.644;9.006;2022-10-22T16:33:50;16.50;99.90
21906;DHT22;11117;48.644;9.006;2022-10-22T16:36:17;16.40;99.90
21906;DHT22;11117;48.644;9.006;2022-10-22T16:38:44;16.40;99.90
21906;DHT22;11117;48.644;9.006;2022-10-22T16:41:12;16.30;99.90
21906;DHT22;11117;48.644;9.006;2022-10-22T16:43:41;16.20;99.90
21906;DHT22;11117;48.644;9.006;2022-10-22T16:46:08;16.10;99.90
21906;DHT22;11117;48.644;9.006;2022-10-22T16:48:34;16.00;99.90
21906;DHT22;11117;48.644;9.006;2022-10-22T16:51:09;16.00;99.90
21906;DHT22;11117;48.644;9.006;2022-10-22T16:53:35;15.90;99.90
21906;DHT22;11117;48.644;9.006;2022-10-22T16:56:01;15.90;99.90
21906;DHT22;11117;48.644;9.006;2022-10-22T16:58:29;15.80;99.90
21906;DHT22;11117;48.644;9.006;2022-10-22T17:00:58;15.80;99.90
21906;DHT22;11117;48.644;9.006;2022-10-22T17:03:23;15.70;99.90
21906;DHT22;11117;48.644;9.006;2022-10-22T17:05:49;15.70;99.90